メインページ
METAR-TAF:

METAR-TAF

空港 :

福岡空港

福岡, 日本

緯度: 33-35N, 経度: 130-27E, 海抜: 9m

現時点の気象観測

当レポートは34分前の08:30(UTC)に作成
西/北西の風 11kt
気温 19°C
湿度 60%
気圧 1008 hPa
視程10km以上
高度2000ftの雲はほとんどない

METAR: RJFF 240830Z 29011KT 9999 FEW020 19/11 Q1008 NOSIG RMK 1CU020 A2977

時間: 18:04 (09:04 UTC)

予報

当レポートは3時間52分前の05:12(UTC)に作成
予報は24日の 06時(UTC)から 25日の 12時(UTC)まで有効
西/北西の風 15kt
視程10km以上
高度3000ftの雲はほとんどない
24日の 10時(UTC)から 24日の 12時(UTC)まで徐々に
南/南東の風 6kt
25日の 00時(UTC)から 25日の 03時(UTC)まで徐々に
北西の風 11kt

TAF: RJFF 240512Z 2406/2512 30015KT 9999 FEW030 BECMG 2410/2412 16006KT BECMG 2500/2503 32011KT

4,000以上の空港の気象観測と天気予報(METAR報とTAF報)

利用可能な観測所は地図上に黄色い丸と赤い丸で示す。

丸の上にカーソルを重ねると観測所名を参照できる。

次にクリックすると気象観測と天気予報を参照できる。

マップの切り替え:黒色「×」印の緑ボタンをクリックして拡大、「-」印の緑ボタンをクリックして縮小、緑色の三角印をクリックして隣りの地図に切り替え


METAR-TAF: